Tajin Airport
MMPA : rendu visible

Aérodrome :











RETROUVEZ-NOUS SUR...

 
LOGIN :

S'inscrire | Disclaimer

   EN    FR    IT 

 









Légende :    VFR   VFR Marginal   IFR   IFR Intensif   IFR Très Intensif
Visi : 
Plafond : 
>= 8 km
>= 3000ft
5 à 8 km
1000 à 3000 ft
1500m à 5 km
500 à 1000 ft
800 à 1500m
200 à 500 ft
< 800m
< 200 ft
Symboles :   Orages  Brouillard  Fortes neiges  Fortes précipitations  Vent > 20 kt






- Altitude de l'aérodrome : 497 ft
- Code IATA : PAZ


MMPA - Tajin

METARs EXPIRÉS :
  • 120040Z 33006KT 7SM BKN100 OVC120 16/12 A3032 RMK 8/07/

TAF TAF MMPA
Valide du 11 à 18h jusqu'au 12 à 18h UTC


111658Z 1118/1218 32010KT 5SM HZ OVC050
FM120000 26010KT 4SM HZ OVC010
FM120900 25005KT 2SM BR OVC005
FM121400 23010KT 3SM HZ SCT010 BKN070



MET'MAP, la Météo Aéronautique d'un coup d'oeil ! - Copyright ORBIFLY Décembre 2007 - Disclaimer

ORBIFLY MET'MAP TEAM :

Programmation & Développement : Alexandra Zaïnal
Sur une idée originale de : Baudouin d'Aumeries
Assistance à la programmation : Marc-Olivier Méhu
Soutien technique & logistique : Manuel Goepfert

Contact : metmap@orbifly.com




SOURCES & CREDITS :

   NOAA       Earth
Advisory